Time,TemperatureF,DewpointF,PressureIn,WindDirection,WindDirectionDegrees,WindSpeedMPH,WindSpeedGustMPH,Humidity,HourlyPrecipIn,Conditions,Clouds,dailyrainin,SolarRadiationWatts/m^2,SoftwareType,DateUTC
2013-08-12 00:00:00,61.0,60.0,-100.00,NNW,334,0.0,0.0,98,0.00,,,0.00,0.000000,,2013-08-12 04:00:00,
2013-08-12 00:02:00,61.0,60.0,-100.00,NNW,334,0.0,0.0,98,0.00,,,0.00,0.000000,,2013-08-12 04:02:00,
2013-08-12 00:33:00,60.0,59.0,-100.00,NNW,339,2.0,5.0,98,0.00,,,0.00,0.000000,,2013-08-12 04:33:00,
2013-08-12 00:43:00,60.0,59.0,-100.00,NNW,339,2.0,5.0,98,0.00,,,0.00,0.000000,,2013-08-12 04:43:00,
2013-08-12 00:52:00,60.0,59.0,-100.00,NNW,339,2.0,5.0,98,0.00,,,0.00,0.000000,,2013-08-12 04:52:00,
2013-08-12 01:02:00,60.0,59.0,-100.00,NNW,339,2.0,5.0,98,0.00,,,0.00,0.000000,,2013-08-12 05:02:00,
2013-08-12 01:32:00,60.0,59.0,-100.00,NW,310,0.0,2.0,98,0.00,,,0.00,0.000000,,2013-08-12 05:32:00,
2013-08-12 01:43:00,60.0,59.0,-100.00,NW,310,0.0,2.0,98,0.00,,,0.00,0.000000,,2013-08-12 05:43:00,
2013-08-12 01:52:00,60.0,59.0,-100.00,NW,310,0.0,2.0,98,0.00,,,0.00,0.000000,,2013-08-12 05:52:00,
2013-08-12 02:02:00,60.0,59.0,-100.00,NW,310,0.0,2.0,98,0.00,,,0.00,0.000000,,2013-08-12 06:02:00,
2013-08-12 02:32:00,60.0,59.0,-100.00,NW,306,1.0,3.0,98,0.00,,,0.00,0.000000,,2013-08-12 06:32:00,
2013-08-12 02:42:00,60.0,59.0,-100.00,NW,306,1.0,3.0,98,0.00,,,0.00,0.000000,,2013-08-12 06:42:00,
2013-08-12 02:52:00,60.0,59.0,-100.00,NW,306,1.0,3.0,98,0.00,,,0.00,0.000000,,2013-08-12 06:52:00,
2013-08-12 03:01:00,60.0,59.0,-100.00,NW,306,1.0,3.0,98,0.00,,,0.00,0.000000,,2013-08-12 07:01:00,
2013-08-12 03:33:00,60.0,59.0,-100.00,NW,326,1.0,2.0,97,0.00,,,0.00,0.000000,,2013-08-12 07:33:00,
2013-08-12 03:43:00,60.0,59.0,-100.00,NW,326,1.0,2.0,97,0.00,,,0.00,0.000000,,2013-08-12 07:43:00,
2013-08-12 03:53:00,60.0,59.0,-100.00,NW,326,1.0,2.0,97,0.00,,,0.00,0.000000,,2013-08-12 07:53:00,
2013-08-12 04:02:00,60.0,59.0,-100.00,NW,326,1.0,2.0,97,0.00,,,0.00,0.000000,,2013-08-12 08:02:00,
2013-08-12 04:33:00,58.0,57.0,-100.00,NNW,331,1.0,2.0,97,0.00,,,0.00,0.000000,,2013-08-12 08:33:00,
2013-08-12 04:43:00,58.0,57.0,-100.00,NNW,331,1.0,2.0,97,0.00,,,0.00,0.000000,,2013-08-12 08:43:00,
2013-08-12 04:53:00,58.0,57.0,-100.00,NNW,331,1.0,2.0,97,0.00,,,0.00,0.000000,,2013-08-12 08:53:00,
2013-08-12 05:02:00,58.0,57.0,-100.00,NNW,331,1.0,2.0,97,0.00,,,0.00,0.000000,,2013-08-12 09:02:00,
2013-08-12 05:32:00,57.0,56.0,-100.00,NW,325,0.0,3.0,98,0.00,,,0.00,0.000000,,2013-08-12 09:32:00,
2013-08-12 05:43:00,57.0,56.0,-100.00,NW,325,0.0,3.0,98,0.00,,,0.00,0.000000,,2013-08-12 09:43:00,
2013-08-12 05:53:00,57.0,56.0,-100.00,NW,325,0.0,3.0,98,0.00,,,0.00,0.000000,,2013-08-12 09:53:00,
2013-08-12 06:02:00,57.0,56.0,-100.00,NW,325,0.0,3.0,98,0.00,,,0.00,0.000000,,2013-08-12 10:02:00,
2013-08-12 06:32:00,57.0,56.0,-100.00,NNW,335,0.0,0.0,98,0.00,,,0.00,0.000000,,2013-08-12 10:32:00,
2013-08-12 06:43:00,57.0,56.0,-100.00,NNW,335,0.0,0.0,98,0.00,,,0.00,0.000000,,2013-08-12 10:43:00,
2013-08-12 06:52:00,57.0,56.0,-100.00,NNW,335,0.0,0.0,98,0.00,,,0.00,0.000000,,2013-08-12 10:52:00,
2013-08-12 07:02:00,57.0,56.0,-100.00,NNW,335,0.0,0.0,98,0.00,,,0.00,0.000000,,2013-08-12 11:02:00,
2013-08-12 07:32:00,56.0,56.0,-100.00,NW,323,0.0,0.0,99,0.00,,,0.00,12.000000,,2013-08-12 11:32:00,
2013-08-12 07:43:00,56.0,56.0,-100.00,NW,323,0.0,0.0,99,0.00,,,0.00,12.000000,,2013-08-12 11:43:00,
2013-08-12 07:53:00,56.0,56.0,-100.00,NW,323,0.0,0.0,99,0.00,,,0.00,12.000000,,2013-08-12 11:53:00,
2013-08-12 08:02:00,56.0,56.0,-100.00,NW,323,0.0,0.0,99,0.00,,,0.00,12.000000,,2013-08-12 12:02:00,
2013-08-12 08:32:00,63.0,62.0,-100.00,West,264,0.0,0.0,98,0.00,,,0.00,114.000000,,2013-08-12 12:32:00,
2013-08-12 08:43:00,63.0,62.0,-100.00,West,264,0.0,0.0,98,0.00,,,0.00,114.000000,,2013-08-12 12:43:00,
2013-08-12 08:52:00,63.0,62.0,-100.00,West,264,0.0,0.0,98,0.00,,,0.00,114.000000,,2013-08-12 12:52:00,
2013-08-12 09:02:00,63.0,62.0,-100.00,West,264,0.0,0.0,98,0.00,,,0.00,114.000000,,2013-08-12 13:02:00,
2013-08-12 10:32:00,74.0,56.0,-100.00,North,349,3.0,6.0,54,0.00,,,0.00,458.000000,,2013-08-12 14:32:00,
2013-08-12 10:42:00,74.0,56.0,-100.00,North,349,3.0,6.0,54,0.00,,,0.00,458.000000,,2013-08-12 14:42:00,
2013-08-12 10:53:00,74.0,56.0,-100.00,North,349,3.0,6.0,54,0.00,,,0.00,458.000000,,2013-08-12 14:53:00,
2013-08-12 11:02:00,74.0,56.0,-100.00,North,349,3.0,6.0,54,0.00,,,0.00,458.000000,,2013-08-12 15:02:00,
2013-08-12 11:33:00,76.0,54.0,-100.00,NE,54,4.0,9.0,47,0.00,,,0.00,621.000000,,2013-08-12 15:33:00,
2013-08-12 11:43:00,76.0,54.0,-100.00,NE,54,4.0,9.0,47,0.00,,,0.00,621.000000,,2013-08-12 15:43:00,
2013-08-12 11:52:00,76.0,54.0,-100.00,NE,54,4.0,9.0,47,0.00,,,0.00,621.000000,,2013-08-12 15:52:00,
2013-08-12 12:02:00,76.0,54.0,-100.00,NE,54,4.0,9.0,47,0.00,,,0.00,621.000000,,2013-08-12 16:02:00,
2013-08-12 12:33:00,78.0,57.0,-100.00,WSW,257,4.0,9.0,49,0.00,,,0.00,717.000000,,2013-08-12 16:33:00,
2013-08-12 12:43:00,78.0,57.0,-100.00,WSW,257,4.0,9.0,49,0.00,,,0.00,717.000000,,2013-08-12 16:43:00,
2013-08-12 12:53:00,78.0,57.0,-100.00,WSW,257,4.0,9.0,49,0.00,,,0.00,717.000000,,2013-08-12 16:53:00,
2013-08-12 13:02:00,78.0,57.0,-100.00,WSW,257,4.0,9.0,49,0.00,,,0.00,717.000000,,2013-08-12 17:02:00,
2013-08-12 13:43:00,78.0,58.0,-100.00,WNW,298,4.0,7.0,50,0.00,,,0.00,677.000000,,2013-08-12 17:43:00,
2013-08-12 13:52:00,78.0,58.0,-100.00,WNW,298,4.0,7.0,50,0.00,,,0.00,677.000000,,2013-08-12 17:52:00,
2013-08-12 14:02:00,78.0,58.0,-100.00,WNW,298,4.0,7.0,50,0.00,,,0.00,677.000000,,2013-08-12 18:02:00,
2013-08-12 14:43:00,78.0,58.0,-100.00,West,263,2.0,7.0,50,0.00,,,0.00,413.000000,,2013-08-12 18:43:00,
2013-08-12 14:52:00,78.0,58.0,-100.00,West,263,2.0,7.0,50,0.00,,,0.00,413.000000,,2013-08-12 18:52:00,
2013-08-12 15:02:00,78.0,58.0,-100.00,West,263,2.0,7.0,50,0.00,,,0.00,413.000000,,2013-08-12 19:02:00,
2013-08-12 15:33:00,79.0,58.0,-100.00,West,260,4.0,7.0,49,0.00,,,0.00,530.000000,,2013-08-12 19:33:00,
2013-08-12 15:43:00,79.0,58.0,-100.00,West,260,4.0,7.0,49,0.00,,,0.00,530.000000,,2013-08-12 19:43:00,
2013-08-12 15:52:00,79.0,58.0,-100.00,West,260,4.0,7.0,49,0.00,,,0.00,530.000000,,2013-08-12 19:52:00,
2013-08-12 16:02:00,79.0,58.0,-100.00,West,260,4.0,7.0,49,0.00,,,0.00,530.000000,,2013-08-12 20:02:00,
2013-08-12 16:32:00,78.0,57.0,-100.00,West,264,2.0,7.0,49,0.00,,,0.00,388.000000,,2013-08-12 20:32:00,
2013-08-12 16:42:00,78.0,57.0,-100.00,West,264,2.0,7.0,49,0.00,,,0.00,388.000000,,2013-08-12 20:42:00,
2013-08-12 16:52:00,78.0,57.0,-100.00,West,264,2.0,7.0,49,0.00,,,0.00,388.000000,,2013-08-12 20:52:00,
2013-08-12 17:01:00,78.0,57.0,-100.00,West,264,2.0,7.0,49,0.00,,,0.00,388.000000,,2013-08-12 21:01:00,
2013-08-12 17:43:00,79.0,59.0,-100.00,SSW,204,3.0,6.0,51,0.00,,,0.00,436.000000,,2013-08-12 21:43:00,
2013-08-12 17:52:00,79.0,59.0,-100.00,SSW,204,3.0,6.0,51,0.00,,,0.00,436.000000,,2013-08-12 21:52:00,
2013-08-12 18:02:00,79.0,59.0,-100.00,SSW,204,3.0,6.0,51,0.00,,,0.00,436.000000,,2013-08-12 22:02:00,
2013-08-12 18:32:00,69.0,60.0,-100.00,North,354,5.0,14.0,74,0.08,,,0.08,58.000000,,2013-08-12 22:32:00,
2013-08-12 18:43:00,69.0,60.0,-100.00,North,354,5.0,14.0,74,0.08,,,0.08,58.000000,,2013-08-12 22:43:00,
2013-08-12 18:53:00,69.0,60.0,-100.00,North,354,5.0,14.0,74,0.08,,,0.08,58.000000,,2013-08-12 22:53:00,
2013-08-12 19:02:00,69.0,60.0,-100.00,North,354,5.0,14.0,74,0.08,,,0.08,58.000000,,2013-08-12 23:02:00,
2013-08-12 19:43:00,67.0,65.0,-100.00,SW,218,1.0,10.0,94,0.00,,,0.08,86.000000,,2013-08-12 23:43:00,
2013-08-12 19:54:00,67.0,65.0,-100.00,SW,218,1.0,10.0,94,0.00,,,0.08,86.000000,,2013-08-12 23:54:00,
2013-08-12 20:03:00,67.0,65.0,-100.00,SW,218,1.0,10.0,94,0.00,,,0.08,86.000000,,2013-08-13 00:03:00,
2013-08-12 20:45:00,64.0,63.0,-100.00,North,354,1.0,3.0,97,0.00,,,0.08,25.000000,,2013-08-13 00:45:00,
2013-08-12 20:54:00,64.0,63.0,-100.00,North,354,1.0,3.0,97,0.00,,,0.08,25.000000,,2013-08-13 00:54:00,
2013-08-12 21:03:00,64.0,63.0,-100.00,North,354,1.0,3.0,97,0.00,,,0.08,25.000000,,2013-08-13 01:03:00,
2013-08-12 21:42:00,62.0,61.0,-100.00,NW,320,1.0,2.0,98,0.00,,,0.08,0.000000,,2013-08-13 01:42:00,
2013-08-12 21:55:00,62.0,61.0,-100.00,NW,320,1.0,2.0,98,0.00,,,0.08,0.000000,,2013-08-13 01:55:00,
2013-08-12 22:02:00,62.0,61.0,-100.00,NW,320,1.0,2.0,98,0.00,,,0.08,0.000000,,2013-08-13 02:02:00,
2013-08-12 22:43:00,61.0,61.0,-100.00,West,279,2.0,2.0,99,0.00,,,0.08,0.000000,,2013-08-13 02:43:00,
2013-08-12 22:52:00,61.0,61.0,-100.00,West,279,2.0,2.0,99,0.00,,,0.08,0.000000,,2013-08-13 02:52:00,
2013-08-12 23:02:00,61.0,61.0,-100.00,West,279,2.0,2.0,99,0.00,,,0.08,0.000000,,2013-08-13 03:02:00,
2013-08-12 23:43:00,61.0,61.0,-100.00,NNW,332,0.0,2.0,99,0.00,,,0.08,0.000000,,2013-08-13 03:43:00,
2013-08-12 23:54:00,61.0,61.0,-100.00,NNW,332,0.0,2.0,99,0.00,,,0.08,0.000000,,2013-08-13 03:54:00,